createdAt,value
2023-05-11T00:00:47.812Z,0.70
2023-05-11T00:04:16.100Z,0.70
2023-05-11T00:07:40.122Z,0.70
2023-05-11T00:11:08.904Z,0.70
2023-05-11T00:14:32.771Z,0.70
2023-05-11T00:17:56.543Z,0.73
2023-05-11T00:21:22.845Z,0.70
2023-05-11T00:24:46.389Z,0.70
2023-05-11T00:28:11.180Z,0.83
2023-05-11T00:31:34.731Z,0.70
2023-05-11T00:34:58.288Z,0.70
2023-05-11T00:38:23.076Z,0.60
2023-05-11T00:41:46.870Z,0.60
2023-05-11T00:45:11.245Z,0.70
2023-05-11T00:48:35.731Z,0.70
2023-05-11T00:52:02.889Z,0.80
2023-05-11T00:55:29.019Z,0.70
2023-05-11T00:58:53.455Z,0.70
2023-05-11T01:02:17.316Z,0.70
2023-05-11T01:05:49.392Z,0.70
2023-05-11T01:09:25.510Z,0.60
2023-05-11T01:13:03.847Z,0.70
2023-05-11T01:16:31.455Z,0.63
2023-05-11T01:20:04.720Z,0.83
2023-05-11T01:24:10.227Z,0.70
2023-05-11T01:27:58.248Z,0.70
2023-05-11T01:31:24.158Z,0.70
2023-05-11T01:34:53.343Z,0.80
2023-05-11T01:38:22.715Z,0.73
2023-05-11T01:41:55.836Z,0.70
2023-05-11T01:45:23.736Z,0.67
2023-05-11T01:48:53.440Z,0.77
2023-05-11T01:52:19.042Z,0.70
2023-05-11T01:55:44.586Z,0.70
2023-05-11T01:59:09.819Z,0.90
2023-05-11T02:02:36.411Z,0.70
2023-05-11T02:06:03.870Z,0.63
2023-05-11T02:09:30.500Z,0.80
2023-05-11T02:12:55.557Z,0.60
2023-05-11T02:16:22.005Z,0.60
2023-05-11T02:19:47.714Z,0.70
2023-05-11T02:23:14.066Z,0.67
2023-05-11T02:26:38.175Z,0.80
2023-05-11T02:30:02.696Z,0.70
2023-05-11T02:33:32.622Z,0.60
2023-05-11T02:37:02.411Z,0.70
2023-05-11T02:40:36.043Z,0.70
2023-05-11T02:44:06.203Z,0.70
2023-05-11T02:47:37.591Z,0.90
2023-05-11T02:51:03.557Z,0.60
2023-05-11T02:54:34.362Z,0.70
2023-05-11T02:57:59.762Z,0.70
2023-05-11T03:01:24.223Z,0.70
2023-05-11T03:04:47.900Z,0.70
2023-05-11T03:08:11.822Z,0.60
2023-05-11T03:11:35.766Z,0.60
2023-05-11T03:15:01.839Z,0.70
2023-05-11T03:18:27.760Z,0.67
2023-05-11T03:21:54.178Z,0.67
2023-05-11T03:25:19.438Z,0.90
2023-05-11T03:28:47.071Z,0.73
2023-05-11T03:32:12.707Z,0.70
2023-05-11T03:35:38.948Z,0.80
2023-05-11T03:39:05.343Z,0.80
2023-05-11T03:42:33.968Z,0.70
2023-05-11T03:46:00.431Z,0.70
2023-05-11T03:49:27.056Z,0.80
2023-05-11T03:52:51.857Z,0.87
2023-05-11T03:56:15.524Z,0.80
2023-05-11T03:59:41.203Z,0.70
2023-05-11T04:03:07.307Z,0.90
2023-05-11T04:06:32.524Z,0.70
2023-05-11T04:10:05.099Z,1.00
2023-05-11T04:13:29.117Z,0.80
2023-05-11T04:16:52.769Z,0.80
2023-05-11T04:20:16.916Z,0.80
2023-05-11T04:23:42.653Z,0.70
2023-05-11T04:27:06.586Z,0.70
2023-05-11T04:30:30.307Z,0.80
2023-05-11T04:33:53.759Z,0.80
2023-05-11T04:37:18.220Z,0.90
2023-05-11T04:40:43.380Z,0.70
2023-05-11T04:44:07.009Z,0.80
2023-05-11T04:47:31.088Z,0.70
2023-05-11T04:50:56.525Z,0.83
2023-05-11T04:54:24.749Z,0.80
2023-05-11T04:57:49.592Z,0.90
2023-05-11T05:01:13.759Z,0.70
2023-05-11T05:04:37.233Z,0.70
2023-05-11T05:08:00.773Z,0.73
2023-05-11T05:11:24.494Z,0.70
2023-05-11T05:14:49.601Z,0.80
2023-05-11T05:18:13.222Z,0.87
2023-05-11T05:21:38.533Z,0.83
2023-05-11T05:25:02.310Z,0.80
2023-05-11T05:28:26.503Z,0.80
2023-05-11T05:31:51.436Z,0.90
2023-05-11T05:35:16.440Z,0.80
2023-05-11T05:38:40.570Z,0.83
2023-05-11T05:42:04.229Z,1.00
2023-05-11T05:45:28.613Z,0.80
2023-05-11T05:48:54.209Z,0.80
2023-05-11T05:52:17.953Z,0.73
2023-05-11T05:55:43.840Z,0.80
2023-05-11T05:59:08.783Z,0.70
2023-05-11T06:02:32.616Z,0.80
2023-05-11T06:05:57.628Z,0.70
2023-05-11T06:09:21.493Z,0.70
2023-05-11T06:12:44.943Z,0.70
2023-05-11T06:16:08.600Z,0.70
2023-05-11T06:19:32.896Z,0.70
2023-05-11T06:22:58.349Z,0.90
2023-05-11T06:26:25.001Z,0.80
2023-05-11T06:29:49.324Z,0.67
2023-05-11T06:33:12.940Z,0.93
2023-05-11T06:36:37.539Z,0.90
2023-05-11T06:40:04.324Z,0.87
2023-05-11T06:43:27.972Z,0.83
2023-05-11T06:46:51.707Z,0.83
2023-05-11T06:50:15.134Z,0.90
2023-05-11T06:53:38.781Z,0.80
2023-05-11T06:57:04.277Z,0.80
2023-05-11T07:00:28.179Z,0.90
2023-05-11T07:03:54.148Z,1.00
2023-05-11T07:07:18.410Z,1.00
2023-05-11T07:10:42.848Z,0.90
2023-05-11T07:14:08.375Z,0.80
2023-05-11T07:17:31.896Z,0.90
2023-05-11T07:20:55.364Z,0.90
2023-05-11T07:24:19.110Z,0.80
2023-05-11T07:27:42.955Z,0.87
2023-05-11T07:31:08.095Z,0.87
2023-05-11T07:34:31.605Z,0.90
2023-05-11T07:37:55.160Z,0.80
2023-05-11T07:41:19.200Z,0.70
2023-05-11T07:44:42.730Z,0.80
2023-05-11T07:48:08.101Z,0.70
2023-05-11T07:51:32.015Z,0.83
2023-05-11T07:54:56.399Z,0.90
2023-05-11T07:58:20.191Z,0.80
2023-05-11T08:01:44.067Z,0.80
2023-05-11T08:05:10.389Z,1.00
2023-05-11T08:08:34.356Z,1.00
2023-05-11T08:11:58.267Z,1.00
2023-05-11T08:15:21.856Z,0.97
2023-05-11T08:18:45.609Z,1.30
2023-05-11T08:22:10.775Z,1.00
2023-05-11T08:25:34.864Z,0.90
2023-05-11T08:28:58.799Z,0.97
2023-05-11T08:32:22.789Z,0.70
2023-05-11T08:35:47.024Z,1.00
2023-05-11T08:39:11.904Z,1.27
2023-05-11T08:42:36.993Z,0.90
2023-05-11T08:46:07.306Z,0.93
2023-05-11T08:49:31.308Z,0.80
2023-05-11T08:52:54.852Z,1.10
2023-05-11T08:56:23.970Z,0.97
2023-05-11T08:59:48.752Z,1.30
2023-05-11T09:03:12.920Z,1.10
2023-05-11T09:06:38.626Z,0.90
2023-05-11T09:10:02.647Z,1.10
2023-05-11T09:13:27.876Z,1.10
2023-05-11T09:16:51.757Z,1.00
2023-05-11T09:20:15.389Z,1.10
2023-05-11T09:23:38.948Z,1.00
2023-05-11T09:27:09.664Z,1.33
2023-05-11T09:30:35.475Z,1.00
2023-05-11T09:34:14.667Z,1.17
2023-05-11T09:37:38.173Z,1.20
2023-05-11T09:41:03.358Z,1.30
2023-05-11T09:44:33.067Z,1.20
2023-05-11T09:47:57.995Z,1.00
2023-05-11T09:51:31.833Z,1.03
2023-05-11T09:54:55.262Z,1.00
2023-05-11T09:58:18.872Z,1.00
2023-05-11T10:01:42.516Z,1.30
2023-05-11T10:05:14.191Z,1.10
2023-05-11T10:08:37.787Z,1.10
2023-05-11T10:12:04.034Z,1.03
2023-05-11T10:15:30.699Z,1.00
2023-05-11T10:18:54.924Z,1.37
2023-05-11T10:22:20.272Z,1.10
2023-05-11T10:25:44.912Z,1.20
2023-05-11T10:29:10.879Z,1.33
2023-05-11T10:32:39.123Z,1.10
2023-05-11T10:36:04.157Z,1.37
2023-05-11T10:39:30.517Z,1.10
2023-05-11T10:43:29.008Z,1.10
2023-05-11T10:47:16.578Z,1.03
2023-05-11T10:50:58.749Z,0.90
2023-05-11T10:54:40.133Z,0.90
2023-05-11T10:58:10.422Z,0.80
2023-05-11T11:01:40.461Z,0.97
2023-05-11T11:05:10.575Z,1.00
2023-05-11T11:08:57.958Z,1.10
2023-05-11T11:12:24.340Z,1.20
2023-05-11T11:16:10.088Z,1.10
2023-05-11T11:19:40.041Z,1.30
2023-05-11T11:23:03.572Z,1.13
2023-05-11T11:26:50.419Z,1.17
2023-05-11T11:30:20.643Z,1.10
2023-05-11T11:33:44.211Z,1.03
2023-05-11T11:37:10.005Z,0.80
2023-05-11T11:40:49.578Z,1.00
2023-05-11T11:44:22.625Z,1.00
2023-05-11T11:48:15.504Z,0.90
2023-05-11T11:51:40.408Z,0.80
2023-05-11T11:55:06.612Z,0.90
2023-05-11T11:59:00.840Z,0.70
2023-05-11T12:02:25.641Z,1.10
2023-05-11T12:05:56.510Z,1.00
2023-05-11T12:09:20.385Z,0.80
2023-05-11T12:12:47.002Z,0.90
2023-05-11T12:16:11.572Z,1.00
2023-05-11T12:19:36.296Z,0.80
2023-05-11T12:23:02.540Z,0.90
2023-05-11T12:26:28.805Z,0.90
2023-05-11T12:29:52.668Z,1.10
2023-05-11T12:33:16.578Z,0.87
2023-05-11T12:36:40.831Z,0.80
2023-05-11T12:40:11.499Z,0.80
2023-05-11T12:43:35.266Z,0.80
2023-05-11T12:46:59.080Z,0.80
2023-05-11T12:50:23.496Z,0.80
2023-05-11T12:53:47.135Z,0.70
2023-05-11T12:57:25.779Z,1.00
2023-05-11T13:00:54.659Z,1.00
2023-05-11T13:04:18.743Z,0.87
2023-05-11T13:07:43.984Z,0.93
2023-05-11T13:11:23.175Z,0.90
2023-05-11T13:14:52.133Z,0.90
2023-05-11T13:18:19.268Z,0.80
2023-05-11T13:21:48.291Z,0.80
2023-05-11T13:25:12.217Z,0.80
2023-05-11T13:28:35.778Z,0.87
2023-05-11T13:32:00.740Z,1.00
2023-05-11T13:35:24.325Z,0.90
2023-05-11T13:38:47.851Z,0.90
2023-05-11T13:42:11.310Z,1.00
2023-05-11T13:45:36.396Z,1.00
2023-05-11T13:49:01.507Z,0.90
2023-05-11T13:52:25.086Z,0.90
2023-05-11T13:55:48.668Z,0.70
2023-05-11T13:59:12.200Z,0.70
2023-05-11T14:02:35.834Z,0.80
2023-05-11T14:06:00.993Z,0.70
2023-05-11T14:09:24.600Z,0.80
2023-05-11T14:12:48.227Z,0.80
2023-05-11T14:16:12.205Z,0.80
2023-05-11T14:19:35.950Z,0.87
2023-05-11T14:23:00.877Z,0.90
2023-05-11T14:26:24.422Z,0.80
2023-05-11T14:29:48.015Z,0.70
2023-05-11T14:33:11.587Z,0.87
2023-05-11T14:36:35.335Z,0.80
2023-05-11T14:40:00.822Z,0.80
2023-05-11T14:43:25.151Z,0.80
2023-05-11T14:46:49.857Z,0.80
2023-05-11T14:50:13.460Z,0.90
2023-05-11T14:53:36.943Z,1.00
2023-05-11T14:57:01.947Z,0.70
2023-05-11T15:00:25.624Z,0.90
2023-05-11T15:03:49.265Z,0.90
2023-05-11T15:07:12.906Z,0.80
2023-05-11T15:10:39.484Z,0.70
2023-05-11T15:14:04.471Z,0.90
2023-05-11T15:17:28.196Z,0.70
2023-05-11T15:20:51.709Z,0.80
2023-05-11T15:24:15.292Z,0.70
2023-05-11T15:27:38.964Z,0.80
2023-05-11T15:31:03.883Z,0.83
2023-05-11T15:34:28.306Z,0.77
2023-05-11T15:37:51.809Z,0.70
2023-05-11T15:41:16.524Z,0.80
2023-05-11T15:44:41.209Z,0.77
2023-05-11T15:48:07.521Z,0.70
2023-05-11T15:51:31.969Z,0.70
2023-05-11T15:54:55.845Z,0.80
2023-05-11T15:58:20.150Z,0.70
2023-05-11T16:01:43.870Z,0.77
2023-05-11T16:05:09.820Z,0.73
2023-05-11T16:08:33.454Z,0.80
2023-05-11T16:11:57.182Z,0.70
2023-05-11T16:15:20.855Z,0.70
2023-05-11T16:18:46.435Z,0.90
2023-05-11T16:22:11.350Z,0.80
2023-05-11T16:25:34.870Z,0.90
2023-05-11T16:28:58.749Z,0.90
2023-05-11T16:32:22.532Z,0.90
2023-05-11T16:35:46.547Z,0.73
2023-05-11T16:39:11.452Z,0.70
2023-05-11T16:42:35.351Z,0.80
2023-05-11T16:45:58.973Z,0.87
2023-05-11T16:49:22.921Z,0.80
2023-05-11T16:52:46.719Z,0.80
2023-05-11T16:56:11.823Z,0.70
2023-05-11T16:59:35.348Z,0.97
2023-05-11T17:02:59.399Z,0.90
2023-05-11T17:06:24.707Z,0.80
2023-05-11T17:09:51.024Z,1.00
2023-05-11T17:13:16.369Z,1.00
2023-05-11T17:16:39.859Z,0.90
2023-05-11T17:20:06.092Z,1.00
2023-05-11T17:23:29.951Z,0.80
2023-05-11T17:26:54.264Z,1.00
2023-05-11T17:30:19.328Z,0.83
2023-05-11T17:33:43.699Z,0.83
2023-05-11T17:37:12.656Z,0.77
2023-05-11T17:40:41.348Z,0.90
2023-05-11T17:44:05.807Z,0.90
2023-05-11T17:47:31.416Z,0.80
2023-05-11T17:50:54.964Z,0.90
2023-05-11T17:54:19.143Z,0.80
2023-05-11T17:57:43.056Z,0.90
2023-05-11T18:01:09.573Z,0.90
2023-05-11T18:04:34.525Z,1.67
2023-05-11T18:07:58.242Z,1.40
2023-05-11T18:11:21.920Z,0.90
2023-05-11T18:14:45.746Z,0.80
2023-05-11T18:18:09.873Z,0.87
2023-05-11T18:21:34.870Z,0.80
2023-05-11T18:24:58.706Z,0.87
2023-05-11T18:28:22.616Z,1.10
2023-05-11T18:31:46.576Z,0.80
2023-05-11T18:35:10.648Z,1.00
2023-05-11T18:38:35.596Z,0.90
2023-05-11T18:42:01.102Z,0.83
2023-05-11T18:45:25.085Z,1.10
2023-05-11T18:48:52.690Z,1.00
2023-05-11T18:52:16.527Z,0.90
2023-05-11T18:55:51.727Z,0.90
2023-05-11T18:59:17.135Z,0.90
2023-05-11T19:02:41.047Z,0.90
2023-05-11T19:06:05.030Z,1.00
2023-05-11T19:09:28.495Z,0.90
2023-05-11T19:12:53.631Z,1.20
2023-05-11T19:16:17.200Z,1.10
2023-05-11T19:19:41.070Z,0.90
2023-05-11T19:23:05.033Z,1.00
2023-05-11T19:26:28.539Z,0.90
2023-05-11T19:29:53.617Z,0.90
2023-05-11T19:33:17.926Z,0.80
2023-05-11T19:36:41.744Z,0.80
2023-05-11T19:40:42.903Z,0.87
2023-05-11T19:43:50.101Z,0.90
2023-05-11T19:47:15.169Z,0.80
2023-05-11T19:50:39.042Z,0.97
2023-05-11T19:54:02.884Z,0.90
2023-05-11T19:57:30.241Z,0.90
2023-05-11T20:00:54.742Z,0.80
2023-05-11T20:04:20.238Z,0.90
2023-05-11T20:07:44.533Z,0.90
2023-05-11T20:11:08.429Z,0.90
2023-05-11T20:14:32.555Z,0.80
2023-05-11T20:17:56.452Z,0.90
2023-05-11T20:21:21.479Z,0.93
2023-05-11T20:24:45.342Z,0.80
2023-05-11T20:28:09.210Z,1.10
2023-05-11T20:31:33.963Z,1.07
2023-05-11T20:34:57.938Z,0.90
2023-05-11T20:38:23.032Z,0.77
2023-05-11T20:41:46.920Z,0.80
2023-05-11T20:45:11.578Z,0.97
2023-05-11T20:48:39.862Z,1.10
2023-05-11T20:52:05.835Z,0.90
2023-05-11T20:55:34.561Z,1.03
2023-05-11T20:58:58.447Z,1.20
2023-05-11T21:02:22.415Z,1.10
2023-05-11T21:05:46.080Z,1.17
2023-05-11T21:09:10.884Z,1.10
2023-05-11T21:12:35.966Z,1.27
2023-05-11T21:15:59.925Z,1.07
2023-05-11T21:19:23.804Z,0.93
2023-05-11T21:22:47.546Z,1.00
2023-05-11T21:26:11.542Z,1.10
2023-05-11T21:29:36.861Z,0.93
2023-05-11T21:33:00.560Z,0.90
2023-05-11T21:36:24.421Z,0.90
2023-05-11T21:39:48.593Z,1.07
2023-05-11T21:43:13.959Z,0.90
2023-05-11T21:46:39.046Z,1.10
2023-05-11T21:50:03.010Z,1.10
2023-05-11T21:53:26.926Z,1.00
2023-05-11T21:56:50.774Z,1.00
2023-05-11T22:00:18.783Z,1.27
2023-05-11T22:03:44.218Z,1.10
2023-05-11T22:07:08.252Z,1.10
2023-05-11T22:10:32.309Z,1.10
2023-05-11T22:13:55.835Z,0.90
2023-05-11T22:17:19.896Z,1.37
2023-05-11T22:20:44.796Z,1.20
2023-05-11T22:24:09.321Z,1.20
2023-05-11T22:27:33.363Z,1.20
2023-05-11T22:30:59.049Z,1.30
2023-05-11T22:34:23.035Z,1.20
2023-05-11T22:37:48.249Z,1.03
2023-05-11T22:41:11.795Z,1.10
2023-05-11T22:44:35.656Z,1.30
2023-05-11T22:47:59.325Z,1.10
2023-05-11T22:51:23.235Z,1.07
2023-05-11T22:54:48.079Z,1.10
2023-05-11T22:58:12.025Z,1.27
2023-05-11T23:01:36.325Z,1.20
2023-05-11T23:05:00.301Z,0.87
2023-05-11T23:08:26.560Z,0.93
2023-05-11T23:11:51.453Z,1.33
2023-05-11T23:15:15.398Z,1.13
2023-05-11T23:18:39.417Z,1.37
2023-05-11T23:22:03.520Z,1.40
2023-05-11T23:25:27.374Z,1.23
2023-05-11T23:28:52.266Z,1.30
2023-05-11T23:32:16.161Z,1.50
2023-05-11T23:35:39.982Z,1.30
2023-05-11T23:39:03.814Z,1.20
2023-05-11T23:42:27.658Z,1.30
2023-05-11T23:45:53.167Z,1.50
2023-05-11T23:49:17.037Z,1.10
2023-05-11T23:52:40.962Z,1.50
2023-05-11T23:56:05.272Z,1.53
2023-05-11T23:59:29.178Z,1.50
